Time;durP1;ratioP1;P1;durP2;ratioP2;P2;SDS_P1;SDS_P2;PMS_P1;PMS_P2;Temp;Humidity;BMP_temperature;BMP_pressure;BME280_temperature;BME280_humidity;BME280_pressure;Samples;Min_cycle;Max_cycle;Signal;HPM_P1;HPM_P2
2022/07/19 00:00:10;;;;;;;;;;;;;;;22.89;37.53;97248.22;30002;983;1875;-66
2022/07/19 00:00:42;;;;;;;;;;;;;;;22.88;37.44;97252.97;30002;983;1875;-64
2022/07/19 00:01:13;;;;;;;;;;;;;;;22.87;37.49;97256.13;30002;983;1875;-64
2022/07/19 00:01:44;;;;;;;;;;;;;;;22.88;37.57;97252.16;30002;983;1862;-65
2022/07/19 00:02:15;;;;;;;;;;;;;;;22.89;37.38;97253.75;30002;983;1866;-65
2022/07/19 00:02:46;;;;;;;;;;;;;;;22.91;37.37;97251.44;30002;983;1875;-63
2022/07/19 00:03:21;;;;;;;;;;;;;;;22.91;37.75;97245.91;30002;983;1875;-65
2022/07/19 00:03:51;;;;;;;;;;;;;;;22.90;37.21;97252.59;30002;983;1875;-55
2022/07/19 00:04:22;;;;;;;;;;;;;;;22.88;37.41;97252.16;30002;983;1862;-66
2022/07/19 00:04:53;;;;;;;;;;;;;;;22.88;37.46;97243.84;30002;982;1866;-66
2022/07/19 00:05:25;;;;;;;;;;;;;;;22.85;37.50;97250.94;30002;982;1875;-65
2022/07/19 00:05:56;;;;;;;;;;;;;;;22.83;37.64;97250.50;30002;982;1875;-65
2022/07/19 00:06:27;;;;;;;;;;;;;;;22.81;37.89;97257.56;30002;982;1875;-66
2022/07/19 00:06:58;;;;;;;;;;;;;;;22.81;37.80;97252.03;30002;982;1875;-65
2022/07/19 00:07:29;;;;;;;;;;;;;;;22.80;38.03;97250.44;30002;983;1875;-65
2022/07/19 00:08:00;;;;;;;;;;;;;;;22.77;38.02;97246.41;30002;983;1875;-64
2022/07/19 00:08:31;;;;;;;;;;;;;;;22.77;37.82;97251.13;30002;983;1875;-63
2022/07/19 00:09:03;;;;;;;;;;;;;;;22.76;38.04;97250.31;30002;983;1875;-66
2022/07/19 00:09:34;;;;;;;;;;;;;;;22.74;38.32;97253.47;30002;983;1862;-65
2022/07/19 00:10:06;;;;;;;;;;;;;;;22.73;38.22;97251.06;30002;983;1866;-54
2022/07/19 00:10:38;;;;;;;;;;;;;;;22.70;38.10;97252.56;30002;983;1875;-65
2022/07/19 00:11:08;;;;;;;;;;;;;;;22.68;38.58;97249.37;30002;983;1875;-66
2022/07/19 00:11:39;;;;;;;;;;;;;;;22.66;38.28;97256.44;30002;983;1875;-66
2022/07/19 00:12:13;;;;;;;;;;;;;;;22.62;38.69;97250.81;30002;983;1875;-65
2022/07/19 00:12:44;;;;;;;;;;;;;;;22.61;38.31;97257.50;30002;982;1875;-65
2022/07/19 00:13:15;;;;;;;;;;;;;;;22.58;38.64;97258.22;30002;982;1875;-56
2022/07/19 00:13:46;;;;;;;;;;;;;;;22.58;38.66;97258.22;30002;982;1875;-66
2022/07/19 00:14:17;;;;;;;;;;;;;;;22.57;38.89;97253.06;30002;982;1875;-65
2022/07/19 00:14:48;;;;;;;;;;;;;;;22.56;38.97;97251.47;30001;983;1861;-65
2022/07/19 00:15:19;;;;;;;;;;;;;;;22.54;38.89;97254.59;30002;983;1866;-65
2022/07/19 00:15:50;;;;;;;;;;;;;;;22.54;39.07;97251.03;30001;983;1875;-66
2022/07/19 00:16:21;;;;;;;;;;;;;;;22.52;39.04;97251.41;30002;983;1776;-66
2022/07/19 00:16:52;;;;;;;;;;;;;;;22.51;38.96;97252.56;30001;983;1875;-63
2022/07/19 00:17:22;;;;;;;;;;;;;;;22.50;39.29;97259.25;30001;983;1875;-65
2022/07/19 00:17:53;;;;;;;;;;;;;;;22.50;39.09;97253.72;30001;983;1875;-66
2022/07/19 00:18:24;;;;;;;;;;;;;;;22.50;39.37;97252.94;30001;985;1862;-66
2022/07/19 00:18:55;;;;;;;;;;;;;;;22.47;39.03;97257.22;30001;983;1866;-55
2022/07/19 00:19:26;;;;;;;;;;;;;;;22.44;39.42;97249.66;30001;983;1875;-65
2022/07/19 00:19:57;;;;;;;;;;;;;;;22.43;39.53;97256.34;30001;982;1875;-62
2022/07/19 00:20:28;;;;;;;;;;;;;;;22.42;39.40;97257.50;30001;982;1875;-63
2022/07/19 00:20:59;;;;;;;;;;;;;;;22.40;39.50;97257.84;30001;982;1862;-65
2022/07/19 00:21:30;;;;;;;;;;;;;;;22.38;39.85;97251.88;30001;982;1867;-64
2022/07/19 00:22:00;;;;;;;;;;;;;;;22.36;39.48;97253.41;30001;982;1875;-66
2022/07/19 00:22:31;;;;;;;;;;;;;;;22.36;39.79;97250.63;30001;983;1875;-65
2022/07/19 00:23:02;;;;;;;;;;;;;;;22.35;39.83;97260.09;30001;983;1875;-65
2022/07/19 00:23:33;;;;;;;;;;;;;;;22.34;39.96;97255.72;30001;983;1862;-64
2022/07/19 00:24:04;;;;;;;;;;;;;;;22.33;39.76;97248.59;30001;983;1866;-65
2022/07/19 00:24:35;;;;;;;;;;;;;;;22.32;40.00;97255.28;30001;983;1874;-64
2022/07/19 00:25:08;;;;;;;;;;;;;;;22.30;39.66;97252.88;30001;983;1875;-68
2022/07/19 00:25:39;;;;;;;;;;;;;;;22.31;40.08;97250.91;30001;983;1875;-66
2022/07/19 00:26:10;;;;;;;;;;;;;;;22.30;39.60;97255.66;30001;983;1875;-64
2022/07/19 00:26:41;;;;;;;;;;;;;;;22.29;39.96;97248.50;30001;982;1875;-66
2022/07/19 00:27:11;;;;;;;;;;;;;;;22.31;40.11;97250.91;30001;982;1875;-66
2022/07/19 00:27:42;;;;;;;;;;;;;;;22.30;40.10;97250.13;30001;982;1875;-64
2022/07/19 00:28:13;;;;;;;;;;;;;;;22.31;39.94;97250.91;30001;966;1891;-64
2022/07/19 00:28:44;;;;;;;;;;;;;;;22.30;40.23;97250.13;30001;982;1862;-65
2022/07/19 00:29:15;;;;;;;;;;;;;;;22.31;39.96;97254.47;30001;982;1867;-64
2022/07/19 00:29:45;;;;;;;;;;;;;;;22.29;40.21;97250.47;30001;982;1875;-62
2022/07/19 00:30:18;;;;;;;;;;;;;;;22.27;39.96;97244.50;30001;983;1875;-66
2022/07/19 00:30:48;;;;;;;;;;;;;;;22.26;40.33;97248.44;30001;983;1857;-67
2022/07/19 00:31:19;;;;;;;;;;;;;;;22.24;40.10;97245.22;30001;983;1875;-64
2022/07/19 00:31:50;;;;;;;;;;;;;;;22.22;40.36;97248.34;30001;983;1875;-65
2022/07/19 00:32:21;;;;;;;;;;;;;;;22.21;39.99;97241.22;30001;983;1875;-65
2022/07/19 00:32:52;;;;;;;;;;;;;;;22.20;40.34;97249.87;30001;983;1875;-67
2022/07/19 00:33:22;;;;;;;;;;;;;;;22.19;40.28;97245.50;30001;983;1862;-63
2022/07/19 00:33:53;;;;;;;;;;;;;;;22.17;40.42;97245.09;30001;983;1866;-66
2022/07/19 00:34:24;;;;;;;;;;;;;;;22.16;40.39;97249.00;30001;982;1875;-66
2022/07/19 00:34:55;;;;;;;;;;;;;;;22.13;40.52;97246.94;30001;982;1875;-66
2022/07/19 00:35:25;;;;;;;;;;;;;;;22.10;40.30;97247.66;30001;982;1875;-64
2022/07/19 00:35:56;;;;;;;;;;;;;;;22.08;40.54;97241.69;30001;982;1875;-65
2022/07/19 00:36:27;;;;;;;;;;;;;;;22.06;40.41;97245.62;30001;982;1875;-65
2022/07/19 00:36:58;;;;;;;;;;;;;;;22.05;40.69;97244.03;30001;982;1875;-63
2022/07/19 00:37:28;;;;;;;;;;;;;;;22.04;40.37;97252.66;30001;983;1875;-64
2022/07/19 00:38:03;;;;;;;;;;;;;;;22.02;40.67;97255.78;30001;983;1875;-64
2022/07/19 00:38:34;;;;;;;;;;;;;;;22.00;40.89;97263.59;30001;983;1862;-64
2022/07/19 00:39:06;;;;;;;;;;;;;;;21.99;40.57;97259.22;30001;983;1853;-66
2022/07/19 00:39:37;;;;;;;;;;;;;;;21.99;40.83;97262.00;30001;983;1875;-64
2022/07/19 00:40:08;;;;;;;;;;;;;;;22.00;40.83;97247.03;30001;983;1875;-64
2022/07/19 00:40:43;;;;;;;;;;;;;;;22.01;40.52;97248.66;30001;983;1875;-66
2022/07/19 00:41:14;;;;;;;;;;;;;;;22.02;40.87;97244.72;30001;983;1875;-62
2022/07/19 00:41:45;;;;;;;;;;;;;;;22.01;40.50;97259.72;30001;982;1875;-66
2022/07/19 00:42:17;;;;;;;;;;;;;;;21.99;40.94;97247.38;30001;982;1875;-65
2022/07/19 00:42:48;;;;;;;;;;;;;;;21.98;40.76;97249.34;30001;982;1875;-66
2022/07/19 00:43:19;;;;;;;;;;;;;;;21.96;40.67;97251.66;30001;982;1862;-64
2022/07/19 00:43:51;;;;;;;;;;;;;;;21.94;40.74;97255.94;30001;982;1867;-65
2022/07/19 00:44:22;;;;;;;;;;;;;;;21.93;41.09;97251.56;30001;983;1875;-64
2022/07/19 00:44:53;;;;;;;;;;;;;;;21.90;40.81;97247.56;30001;983;1875;-66
2022/07/19 00:45:24;;;;;;;;;;;;;;;21.88;40.92;97249.87;30001;983;1875;-64
2022/07/19 00:45:55;;;;;;;;;;;;;;;21.87;40.96;97253.78;30001;983;1875;-66
2022/07/19 00:46:26;;;;;;;;;;;;;;;21.87;41.36;97256.56;30001;983;1875;-66
2022/07/19 00:46:56;;;;;;;;;;;;;;;21.85;41.28;97256.13;30001;983;1875;-66
2022/07/19 00:47:27;;;;;;;;;;;;;;;21.85;41.17;97250.59;30001;983;1875;-65
2022/07/19 00:47:58;;;;;;;;;;;;;;;21.87;41.14;97248.28;30001;972;1895;-67
2022/07/19 00:48:29;;;;;;;;;;;;;;;21.85;41.48;97250.59;30001;983;1862;-65
2022/07/19 00:49:00;;;;;;;;;;;;;;;21.83;41.10;97252.91;30001;983;1866;-65
2022/07/19 00:49:31;;;;;;;;;;;;;;;21.80;41.24;97247.31;30001;982;1875;-66
2022/07/19 00:50:03;;;;;;;;;;;;;;;21.80;41.51;97252.84;30001;982;1875;-65
2022/07/19 00:50:34;;;;;;;;;;;;;;;21.77;41.36;97254.34;30001;982;1862;-65
2022/07/19 00:51:05;;;;;;;;;;;;;;;21.76;41.46;97252.75;30001;982;1867;-65
2022/07/19 00:51:39;;;;;;;;;;;;;;;21.74;41.64;97252.31;30001;982;1875;-65
2022/07/19 00:52:13;;;;;;;;;;;;;;;21.73;41.41;97247.94;30001;983;1875;-64
2022/07/19 00:52:46;;;;;;;;;;;;;;;21.74;41.51;97255.88;30001;983;1875;-65
2022/07/19 00:53:18;;;;;;;;;;;;;;;21.73;41.45;97254.25;30001;983;1875;-65
2022/07/19 00:53:50;;;;;;;;;;;;;;;21.74;41.41;97258.63;30001;983;1756;-66
2022/07/19 00:54:22;;;;;;;;;;;;;;;21.73;41.29;97254.25;30001;983;1866;-65
2022/07/19 00:54:54;;;;;;;;;;;;;;;21.71;41.43;97251.06;30001;983;1875;-63
2022/07/19 00:55:25;;;;;;;;;;;;;;;21.71;41.38;97247.50;30001;983;1875;-65
2022/07/19 00:55:57;;;;;;;;;;;;;;;21.71;41.73;97251.06;30001;983;1875;-65
2022/07/19 00:56:33;;;;;;;;;;;;;;;21.72;41.42;97246.34;30001;983;1875;-65
2022/07/19 00:57:04;;;;;;;;;;;;;;;21.71;41.44;97250.25;30001;982;1875;-66
2022/07/19 00:57:37;;;;;;;;;;;;;;;21.70;41.39;97259.69;30001;982;1875;-64
2022/07/19 00:58:10;;;;;;;;;;;;;;;21.67;41.57;97255.69;30001;982;1862;-64
2022/07/19 00:58:41;;;;;;;;;;;;;;;21.66;41.61;97258.81;30001;982;1867;-65
2022/07/19 00:59:12;;;;;;;;;;;;;;;21.64;41.23;97255.59;30001;982;1875;-64
2022/07/19 00:59:43;;;;;;;;;;;;;;;21.63;41.41;97253.97;30001;983;1875;-65
2022/07/19 01:00:16;;;;;;;;;;;;;;;21.61;41.25;97259.06;30001;983;1875;-64
2022/07/19 01:00:47;;;;;;;;;;;;;;;21.59;41.38;97259.41;30001;983;1861;-64
2022/07/19 01:01:18;;;;;;;;;;;;;;;21.59;41.33;97253.09;30001;983;1866;-64
2022/07/19 01:01:49;;;;;;;;;;;;;;;21.57;41.03;97250.69;30001;983;1875;-65
2022/07/19 01:02:20;;;;;;;;;;;;;;;21.56;41.25;97253.81;30001;983;1875;-63
2022/07/19 01:02:51;;;;;;;;;;;;;;;21.56;41.27;97260.13;30001;983;1862;-63
2022/07/19 01:03:24;;;;;;;;;;;;;;;21.55;41.30;97253.00;30001;983;1866;-65
2022/07/19 01:03:55;;;;;;;;;;;;;;;21.57;40.79;97255.41;30001;983;1875;-64
2022/07/19 01:04:27;;;;;;;;;;;;;;;21.56;41.19;97259.31;30001;982;1862;-54
2022/07/19 01:05:00;;;;;;;;;;;;;;;21.57;40.84;97252.66;30001;984;1861;-63
2022/07/19 01:05:31;;;;;;;;;;;;;;;21.61;40.28;97253.53;30001;982;1862;-64
2022/07/19 01:06:02;;;;;;;;;;;;;;;21.62;40.17;97253.19;30001;982;1867;-64
2022/07/19 01:06:33;;;;;;;;;;;;;;;21.64;40.43;97250.88;30001;982;1875;-66
2022/07/19 01:07:04;;;;;;;;;;;;;;;21.64;40.03;97250.06;30001;983;1875;-64
2022/07/19 01:07:37;;;;;;;;;;;;;;;21.63;40.30;97253.97;30001;983;1875;-65
2022/07/19 01:08:07;;;;;;;;;;;;;;;21.62;40.00;97255.94;30001;983;1875;-55
2022/07/19 01:08:39;;;;;;;;;;;;;;;21.59;40.54;97247.56;30001;983;1875;-65
2022/07/19 01:09:10;;;;;;;;;;;;;;;21.58;40.12;97260.56;30001;983;1875;-64
2022/07/19 01:09:41;;;;;;;;;;;;;;;21.56;40.29;97248.28;30001;983;1862;-66
2022/07/19 01:10:13;;;;;;;;;;;;;;;21.56;40.27;97256.56;30001;983;1866;-65
2022/07/19 01:10:44;;;;;;;;;;;;;;;21.55;40.31;97263.25;30001;983;1862;-64
2022/07/19 01:11:19;;;;;;;;;;;;;;;21.54;40.38;97258.88;30001;983;1866;-65
2022/07/19 01:11:51;;;;;;;;;;;;;;;21.52;40.80;97252.91;30001;983;1875;-64
2022/07/19 01:12:23;;;;;;;;;;;;;;;21.52;40.49;97258.44;30001;982;1875;-66
2022/07/19 01:12:54;;;;;;;;;;;;;;;21.51;40.61;97251.28;30001;982;1875;-65
2022/07/19 01:13:25;;;;;;;;;;;;;;;21.51;40.27;97256.81;30001;982;1875;-65
2022/07/19 01:13:56;;;;;;;;;;;;;;;21.52;40.57;97252.91;30001;982;1875;-66
2022/07/19 01:14:27;;;;;;;;;;;;;;;21.51;40.67;97251.28;30001;983;1861;-66
2022/07/19 01:14:58;;;;;;;;;;;;;;;21.52;40.51;97250.13;30001;983;1866;-66
2022/07/19 01:15:29;;;;;;;;;;;;;;;21.53;40.31;97249.00;30001;983;1875;-65
2022/07/19 01:16:00;;;;;;;;;;;;;;;21.51;40.37;97252.09;30001;983;1875;-66
2022/07/19 01:16:31;;;;;;;;;;;;;;;21.52;40.28;97248.19;30001;983;1875;-64
2022/07/19 01:17:02;;;;;;;;;;;;;;;21.51;40.75;97245.78;30001;983;1875;-65
2022/07/19 01:17:33;;;;;;;;;;;;;;;21.50;40.38;97256.03;30001;983;1875;-65
2022/07/19 01:18:04;;;;;;;;;;;;;;;21.50;40.79;97249.69;30001;983;1875;-63
2022/07/19 01:18:35;;;;;;;;;;;;;;;21.52;40.74;97258.44;30001;982;1875;-64
2022/07/19 01:19:06;;;;;;;;;;;;;;;21.52;40.92;97258.44;30001;982;1875;-67
2022/07/19 01:19:37;;;;;;;;;;;;;;;21.53;40.87;97257.28;30001;982;1862;-66
2022/07/19 01:20:08;;;;;;;;;;;;;;;21.54;41.16;97254.16;30001;982;1866;-64
2022/07/19 01:20:39;;;;;;;;;;;;;;;21.54;40.75;97256.91;30001;982;1875;-64
2022/07/19 01:21:20;;;;;;;;;;;;;;;21.53;40.79;97255.31;30001;982;1875;-66
2022/07/19 01:21:51;;;;;;;;;;;;;;;21.54;40.87;97256.09;30001;982;1875;-64
2022/07/19 01:22:21;;;;;;;;;;;;;;;21.51;40.93;97252.09;30001;983;1875;-65
2022/07/19 01:22:52;;;;;;;;;;;;;;;21.51;41.25;97251.28;30001;983;1875;-66
2022/07/19 01:23:23;;;;;;;;;;;;;;;21.49;41.30;97250.84;30001;983;1875;-65
2022/07/19 01:23:54;;;;;;;;;;;;;;;21.47;41.25;97254.00;30001;983;1875;-67
2022/07/19 01:24:25;;;;;;;;;;;;;;;21.46;41.30;97252.38;30001;983;1875;-65
2022/07/19 01:24:55;;;;;;;;;;;;;;;21.45;41.42;97261.03;30001;983;1862;-65
2022/07/19 01:25:34;;;;;;;;;;;;;;;21.46;41.70;97259.88;30001;983;1867;-65
2022/07/19 01:26:05;;;;;;;;;;;;;;;21.44;41.44;97259.41;30001;983;1875;-65
2022/07/19 01:26:36;;;;;;;;;;;;;;;21.43;41.47;97255.06;30001;982;1875;-65
2022/07/19 01:27:07;;;;;;;;;;;;;;;21.42;41.63;97254.25;30001;982;1776;-66
2022/07/19 01:27:48;;;;;;;;;;;;;;;21.42;42.07;97253.44;30001;982;1875;-66
2022/07/19 01:28:19;;;;;;;;;;;;;;;21.43;41.89;97255.84;30001;982;1875;-66
2022/07/19 01:28:50;;;;;;;;;;;;;;;21.41;42.07;97263.69;30001;982;1875;-66
2022/07/19 01:29:21;;;;;;;;;;;;;;;21.40;42.02;97257.37;30001;982;1875;-65
2022/07/19 01:29:51;;;;;;;;;;;;;;;21.42;42.21;97256.22;30001;983;1875;-64
2022/07/19 01:30:24;;;;;;;;;;;;;;;21.44;42.40;97259.41;30001;983;1862;-66
2022/07/19 01:30:55;;;;;;;;;;;;;;;21.42;42.31;97247.94;30001;983;1866;-65
2022/07/19 01:31:29;;;;;;;;;;;;;;;21.42;42.24;97256.22;30001;983;1875;-66
2022/07/19 01:32:03;;;;;;;;;;;;;;;21.40;42.56;97254.59;30001;983;1875;-65
2022/07/19 01:32:34;;;;;;;;;;;;;;;21.39;42.13;97254.97;30001;983;1876;-66
2022/07/19 01:33:05;;;;;;;;;;;;;;;21.37;42.39;97258.06;30001;983;1774;-64
2022/07/19 01:33:39;;;;;;;;;;;;;;;21.35;42.26;97260.38;30001;983;1875;-65
2022/07/19 01:34:10;;;;;;;;;;;;;;;21.34;42.73;97247.72;30001;982;1875;-63
2022/07/19 01:34:41;;;;;;;;;;;;;;;21.33;42.40;97251.66;30001;982;1875;-64
2022/07/19 01:35:12;;;;;;;;;;;;;;;21.33;42.56;97257.16;30001;982;1875;-61
2022/07/19 01:35:43;;;;;;;;;;;;;;;21.31;42.63;97253.16;30001;982;1862;-66
2022/07/19 01:36:13;;;;;;;;;;;;;;;21.30;42.65;97252.34;30001;982;1867;-66
2022/07/19 01:36:44;;;;;;;;;;;;;;;21.30;42.51;97257.06;30001;982;1875;-66
2022/07/19 01:37:15;;;;;;;;;;;;;;;21.28;42.80;97257.44;30001;983;1875;-65
2022/07/19 01:37:46;;;;;;;;;;;;;;;21.28;42.56;97249.16;30001;983;1874;-66
2022/07/19 01:38:17;;;;;;;;;;;;;;;21.26;42.60;97256.16;30001;983;1875;-66
2022/07/19 01:38:48;;;;;;;;;;;;;;;21.25;42.51;97255.38;30001;983;1875;-64
2022/07/19 01:39:19;;;;;;;;;;;;;;;21.23;42.45;97246.62;30001;983;1875;-66
2022/07/19 01:39:50;;;;;;;;;;;;;;;21.26;42.52;97254.22;30001;983;1875;-65
2022/07/19 01:40:22;;;;;;;;;;;;;;;21.25;42.72;97252.59;30001;983;1875;-65
2022/07/19 01:40:53;;;;;;;;;;;;;;;21.25;42.38;97252.59;30001;983;1862;-64
2022/07/19 01:41:23;;;;;;;;;;;;;;;21.24;42.44;97252.97;30001;982;1866;-66
2022/07/19 01:41:54;;;;;;;;;;;;;;;21.20;42.14;97252.84;30001;982;1875;-65
2022/07/19 01:42:25;;;;;;;;;;;;;;;21.19;42.69;97255.94;30001;982;1875;-65
2022/07/19 01:42:56;;;;;;;;;;;;;;;21.19;42.33;97256.75;30001;982;1875;-66
2022/07/19 01:43:27;;;;;;;;;;;;;;;21.18;42.47;97257.91;30001;982;1875;-67
2022/07/19 01:43:57;;;;;;;;;;;;;;;21.17;42.29;97258.25;30001;982;1876;-67
2022/07/19 01:44:28;;;;;;;;;;;;;;;21.15;42.56;97258.59;30001;982;1790;-66
2022/07/19 01:44:59;;;;;;;;;;;;;;;21.20;42.12;97252.84;30001;983;1875;-65
2022/07/19 01:45:30;;;;;;;;;;;;;;;21.19;42.35;97255.94;30001;983;1875;-66
2022/07/19 01:46:01;;;;;;;;;;;;;;;21.16;42.26;97251.94;30001;983;1862;-64
2022/07/19 01:46:32;;;;;;;;;;;;;;;21.10;42.33;97253.38;30001;983;1866;-66
2022/07/19 01:47:03;;;;;;;;;;;;;;;21.08;42.11;97255.66;30001;983;1875;-65
2022/07/19 01:47:34;;;;;;;;;;;;;;;21.05;42.46;97261.88;30001;983;1875;-66
2022/07/19 01:48:05;;;;;;;;;;;;;;;21.03;42.40;97255.91;30001;983;1875;-65
2022/07/19 01:48:36;;;;;;;;;;;;;;;21.02;42.31;97257.06;30001;983;1875;-66
2022/07/19 01:49:07;;;;;;;;;;;;;;;21.03;42.43;97253.16;30001;982;1875;-65
2022/07/19 01:49:38;;;;;;;;;;;;;;;21.01;42.37;97250.75;30001;982;1875;-65
2022/07/19 01:50:10;;;;;;;;;;;;;;;21.02;42.54;97257.06;30001;982;1875;-65
2022/07/19 01:50:41;;;;;;;;;;;;;;;21.01;42.68;97255.47;30001;982;1875;-65
2022/07/19 01:51:12;;;;;;;;;;;;;;;21.00;42.41;97254.66;30001;982;1862;-66
2022/07/19 01:51:43;;;;;;;;;;;;;;;21.01;42.53;97255.47;30001;983;1866;-65
2022/07/19 01:52:13;;;;;;;;;;;;;;;21.00;42.65;97256.63;30001;983;1875;-65
2022/07/19 01:52:45;;;;;;;;;;;;;;;21.01;42.38;97252.72;30001;983;1875;-55
2022/07/19 01:53:16;;;;;;;;;;;;;;;20.99;42.77;97255.81;30001;983;1875;-65
2022/07/19 01:53:46;;;;;;;;;;;;;;;20.99;42.54;97252.25;30001;983;1875;-66
2022/07/19 01:54:17;;;;;;;;;;;;;;;20.97;42.69;97252.59;30001;983;1875;-65
2022/07/19 01:54:48;;;;;;;;;;;;;;;20.98;42.50;97256.16;30001;983;1875;-65
2022/07/19 01:55:19;;;;;;;;;;;;;;;20.97;42.66;97255.38;30001;983;1875;-65
2022/07/19 01:55:50;;;;;;;;;;;;;;;20.96;42.71;97247.44;30001;983;1875;-67
2022/07/19 01:56:21;;;;;;;;;;;;;;;20.96;42.48;97248.25;30001;982;1862;-67
2022/07/19 01:56:52;;;;;;;;;;;;;;;20.97;42.71;97257.31;30001;982;1866;-65
2022/07/19 01:57:23;;;;;;;;;;;;;;;20.98;42.77;97245.12;30001;982;1875;-64
2022/07/19 01:57:54;;;;;;;;;;;;;;;20.97;42.69;97246.28;30001;982;1875;-64
2022/07/19 01:58:25;;;;;;;;;;;;;;;20.96;42.65;97247.44;30001;982;1862;-65
2022/07/19 01:58:55;;;;;;;;;;;;;;;20.94;42.40;97255.25;30001;983;1866;-62
2022/07/19 01:59:26;;;;;;;;;;;;;;;20.94;42.51;97250.56;30001;983;1861;-66
2022/07/19 01:59:57;;;;;;;;;;;;;;;20.94;42.34;97249.75;30001;983;1866;-63
2022/07/19 02:00:28;;;;;;;;;;;;;;;20.92;42.35;97247.34;30001;983;1875;-65
2022/07/19 02:00:59;;;;;;;;;;;;;;;20.92;42.81;97250.09;30001;983;1862;-63
2022/07/19 02:01:30;;;;;;;;;;;;;;;20.93;42.34;97250.91;30001;983;1866;-66
2022/07/19 02:02:01;;;;;;;;;;;;;;;20.95;42.69;97245.84;30001;983;1866;-63
2022/07/19 02:02:32;;;;;;;;;;;;;;;20.93;42.29;97248.13;30001;964;1840;-65
2022/07/19 02:03:03;;;;;;;;;;;;;;;20.91;42.33;97240.22;30001;983;1879;-64
2022/07/19 02:03:34;;;;;;;;;;;;;;;20.91;42.51;97244.94;30001;986;1866;-66
2022/07/19 02:04:05;;;;;;;;;;;;;;;20.88;42.27;97243.66;30001;982;1871;-65
2022/07/19 02:04:35;;;;;;;;;;;;;;;20.90;42.39;97237.81;30001;982;1866;-66
2022/07/19 02:05:07;;;;;;;;;;;;;;;20.88;42.20;97240.13;30001;982;1871;-65
2022/07/19 02:05:38;;;;;;;;;;;;;;;20.89;42.27;97241.72;30001;982;1880;-63
2022/07/19 02:06:09;;;;;;;;;;;;;;;20.88;42.33;97234.59;30001;982;1880;-64
2022/07/19 02:06:40;;;;;;;;;;;;;;;20.87;42.26;97239.31;30001;983;1879;-64
2022/07/19 02:07:11;;;;;;;;;;;;;;;20.87;42.48;97244.03;30001;983;1866;-66
2022/07/19 02:07:42;;;;;;;;;;;;;;;20.86;42.14;97245.19;30001;983;1870;-66
2022/07/19 02:08:13;;;;;;;;;;;;;;;20.86;42.13;97236.91;30001;983;1879;-65
2022/07/19 02:08:43;;;;;;;;;;;;;;;20.84;42.20;97236.44;30001;983;1879;-66
2022/07/19 02:09:14;;;;;;;;;;;;;;;20.83;42.34;97240.34;30001;983;1879;-65
2022/07/19 02:09:45;;;;;;;;;;;;;;;20.82;42.37;97241.50;30001;983;1879;-66
2022/07/19 02:10:16;;;;;;;;;;;;;;;20.80;42.56;97238.31;30001;983;1879;-63
2022/07/19 02:10:47;;;;;;;;;;;;;;;20.80;42.23;97235.53;30001;983;1879;-66
2022/07/19 02:11:36;;;;;;;;;;;;;;;20.79;42.56;97237.53;30001;983;1866;-66
2022/07/19 02:12:07;;;;;;;;;;;;;;;20.80;42.24;97241.06;30001;982;1871;-66
2022/07/19 02:12:39;;;;;;;;;;;;;;;20.79;42.26;97237.53;30001;982;1880;-64
2022/07/19 02:13:09;;;;;;;;;;;;;;;20.79;42.30;97231.22;30001;982;1880;-64
2022/07/19 02:13:40;;;;;;;;;;;;;;;20.79;42.24;97242.25;30001;982;1880;-65
2022/07/19 02:14:11;;;;;;;;;;;;;;;20.77;42.30;97233.50;30001;983;1879;-65
2022/07/19 02:14:42;;;;;;;;;;;;;;;20.74;42.32;97235.81;30001;983;1879;-66
2022/07/19 02:15:13;;;;;;;;;;;;;;;20.76;42.34;97231.91;30001;983;1866;-65
2022/07/19 02:15:43;;;;;;;;;;;;;;;20.76;42.19;97240.19;30001;983;1870;-64
2022/07/19 02:16:14;;;;;;;;;;;;;;;20.76;42.26;97237.44;30001;983;1879;-64
2022/07/19 02:16:45;;;;;;;;;;;;;;;20.77;42.17;97241.78;30001;983;1879;-64
2022/07/19 02:17:16;;;;;;;;;;;;;;;20.77;42.31;97234.31;30001;983;1879;-67
2022/07/19 02:17:47;;;;;;;;;;;;;;;20.76;42.05;97238.22;30001;983;1879;-65
2022/07/19 02:18:17;;;;;;;;;;;;;;;20.76;42.14;97240.19;30001;983;1866;-66
2022/07/19 02:18:48;;;;;;;;;;;;;;;20.76;42.26;97232.72;30001;983;1858;-66
2022/07/19 02:19:22;;;;;;;;;;;;;;;20.76;42.40;97234.66;30001;982;1880;-65
2022/07/19 02:19:53;;;;;;;;;;;;;;;20.77;42.03;97239.03;30001;982;1880;-66
2022/07/19 02:20:28;;;;;;;;;;;;;;;20.76;42.11;97240.19;30001;982;1880;-65
2022/07/19 02:20:58;;;;;;;;;;;;;;;20.78;42.02;97235.13;30001;982;1880;-65
2022/07/19 02:21:29;;;;;;;;;;;;;;;20.77;42.24;97239.84;30001;983;1866;-66
2022/07/19 02:22:00;;;;;;;;;;;;;;;20.79;42.03;97236.72;30001;983;1870;-65
2022/07/19 02:22:31;;;;;;;;;;;;;;;20.80;42.13;97235.53;30001;983;1879;-65
2022/07/19 02:23:02;;;;;;;;;;;;;;;20.79;42.15;97237.53;30001;983;1879;-65
2022/07/19 02:23:33;;;;;;;;;;;;;;;20.81;42.17;97237.16;30001;983;1879;-65
2022/07/19 02:24:04;;;;;;;;;;;;;;;20.80;41.94;97230.03;30001;983;1866;-65
2022/07/19 02:24:35;;;;;;;;;;;;;;;20.80;42.00;97230.03;30001;983;1870;-65
2022/07/19 02:25:06;;;;;;;;;;;;;;;20.80;41.90;97235.53;30001;983;1879;-64
2022/07/19 02:25:37;;;;;;;;;;;;;;;20.79;41.95;97231.22;30001;983;1879;-65
2022/07/19 02:26:08;;;;;;;;;;;;;;;20.79;42.35;97233.97;30001;982;1796;-65
2022/07/19 02:26:39;;;;;;;;;;;;;;;20.78;42.18;97232.38;30001;982;1871;-65
2022/07/19 02:27:10;;;;;;;;;;;;;;;20.77;42.36;97228.00;30001;982;1880;-65
2022/07/19 02:27:42;;;;;;;;;;;;;;;20.76;42.41;97232.72;30001;982;1880;-65
2022/07/19 02:28:13;;;;;;;;;;;;;;;20.76;42.41;97234.66;30001;982;1867;-63
2022/07/19 02:28:43;;;;;;;;;;;;;;;20.73;42.05;97236.97;30001;982;1871;-64
2022/07/19 02:29:15;;;;;;;;;;;;;;;20.72;42.11;97238.12;30001;983;1866;-65
2022/07/19 02:29:46;;;;;;;;;;;;;;;20.72;42.32;97237.31;30001;986;1870;-65
2022/07/19 02:30:17;;;;;;;;;;;;;;;20.70;42.43;97228.59;30001;983;1879;-64
2022/07/19 02:30:47;;;;;;;;;;;;;;;20.69;42.21;97233.31;30001;983;1879;-66
2022/07/19 02:31:19;;;;;;;;;;;;;;;20.67;42.22;97227.34;30001;983;1879;-64
2022/07/19 02:31:50;;;;;;;;;;;;;;;20.66;42.54;97227.69;30001;983;1879;-64
2022/07/19 02:32:21;;;;;;;;;;;;;;;20.66;42.33;97228.50;30001;983;1879;-65
2022/07/19 02:32:51;;;;;;;;;;;;;;;20.64;42.50;97236.31;30001;983;1879;-66
2022/07/19 02:33:22;;;;;;;;;;;;;;;20.64;42.68;97235.50;30001;982;1879;-65
2022/07/19 02:33:53;;;;;;;;;;;;;;;20.62;42.49;97230.34;30001;982;1793;-64
2022/07/19 02:34:24;;;;;;;;;;;;;;;20.62;42.64;97237.81;30001;982;1866;-65
2022/07/19 02:34:55;;;;;;;;;;;;;;;20.60;42.60;97229.88;30001;982;1871;-65
2022/07/19 02:35:26;;;;;;;;;;;;;;;20.59;42.77;97228.28;30001;982;1792;-66
2022/07/19 02:35:57;;;;;;;;;;;;;;;20.61;42.63;97233.44;30001;982;1867;-66
2022/07/19 02:36:28;;;;;;;;;;;;;;;20.60;42.89;97229.06;30001;982;1871;-65
2022/07/19 02:36:59;;;;;;;;;;;;;;;20.60;42.64;97229.88;30001;983;1879;-64
2022/07/19 02:37:30;;;;;;;;;;;;;;;20.60;43.11;97227.13;30001;983;1879;-66
2022/07/19 02:38:01;;;;;;;;;;;;;;;20.62;42.66;97233.09;30001;983;1879;-64
2022/07/19 02:38:31;;;;;;;;;;;;;;;20.61;42.68;97225.16;30001;983;1879;-65
2022/07/19 02:39:02;;;;;;;;;;;;;;;20.61;42.68;97219.66;30001;983;1866;-65
2022/07/19 02:39:33;;;;;;;;;;;;;;;20.60;42.68;97224.38;30001;983;1871;-63
2022/07/19 02:40:05;;;;;;;;;;;;;;;20.62;42.67;97222.06;30001;983;1879;-66
2022/07/19 02:40:35;;;;;;;;;;;;;;;20.61;42.56;97225.16;30001;983;1879;-65
2022/07/19 02:41:06;;;;;;;;;;;;;;;20.61;42.62;97225.97;30001;982;1866;-65
2022/07/19 02:41:37;;;;;;;;;;;;;;;20.61;42.92;97223.22;30001;982;1871;-64
2022/07/19 02:42:08;;;;;;;;;;;;;;;20.63;42.52;97228.38;30001;982;1866;-65
2022/07/19 02:42:38;;;;;;;;;;;;;;;20.63;42.70;97229.19;30001;982;1871;-66
2022/07/19 02:43:09;;;;;;;;;;;;;;;20.65;42.83;97221.38;30001;982;1820;-65
2022/07/19 02:43:40;;;;;;;;;;;;;;;20.63;42.48;97229.19;30001;982;1880;-64
2022/07/19 02:44:11;;;;;;;;;;;;;;;20.64;42.65;97221.72;30001;983;1879;-66
2022/07/19 02:44:42;;;;;;;;;;;;;;;20.64;42.78;97211.50;30001;983;1879;-67
2022/07/19 02:45:13;;;;;;;;;;;;;;;20.65;42.79;97226.87;30001;983;1866;-65
2022/07/19 02:45:43;;;;;;;;;;;;;;;20.62;42.61;97227.56;30001;964;1889;-62
2022/07/19 02:46:14;;;;;;;;;;;;;;;20.63;42.74;97222.88;30001;983;1879;-64
2022/07/19 02:46:45;;;;;;;;;;;;;;;20.61;42.98;97220.47;30001;983;1879;-66
2022/07/19 02:47:16;;;;;;;;;;;;;;;20.61;43.02;97225.97;30001;983;1879;-66